Rosice, Czech Republic
Current Conditions -  °F | °C
As of 11:00 AM on Friday 31 Oct 2014 (Local Time) from LKNA Reporting Station
Haze Haze  
Wind Chill: 41°   Ceiling: 1800
Heat Index: 41°   Visibility: 2.1mi
Dew Point: 41°   Wind: 1mph
Humidity: 100%   Direction: NA
Pressure: 30.36"   Gusts: NA
Location:  49.18°N, 16.38°E
Report Text: LKNA 310900Z VRB01KT 3500 BR OVC018 05/05 Q1028 NOSIG
Loading
Personal Weather Stations






























Interactive Weather Map
Tropical Storm Tracking
New forecast layout! Learn more

10-Day Weather Forecast

Advertisements
Track Severe Weather on mobile